sensor_id;sensor_type;location;lat;lon;timestamp;temperature;humidity
2941;DHT22;1480;51.456;6.670;2022-09-01T00:00:39;23.30;36.70
2941;DHT22;1480;51.456;6.670;2022-09-01T00:03:07;23.20;36.90
2941;DHT22;1480;51.456;6.670;2022-09-01T00:05:35;23.10;36.80
2941;DHT22;1480;51.456;6.670;2022-09-01T00:08:03;23.10;36.60
2941;DHT22;1480;51.456;6.670;2022-09-01T00:10:30;22.90;37.30
2941;DHT22;1480;51.456;6.670;2022-09-01T00:12:58;22.90;37.40
2941;DHT22;1480;51.456;6.670;2022-09-01T00:15:25;22.90;37.20
2941;DHT22;1480;51.456;6.670;2022-09-01T00:17:53;23.00;36.90
2941;DHT22;1480;51.456;6.670;2022-09-01T00:20:20;23.00;37.30
2941;DHT22;1480;51.456;6.670;2022-09-01T00:22:47;23.00;36.80
2941;DHT22;1480;51.456;6.670;2022-09-01T00:25:14;22.90;36.80
2941;DHT22;1480;51.456;6.670;2022-09-01T00:27:43;22.80;37.00
2941;DHT22;1480;51.456;6.670;2022-09-01T00:30:12;22.80;37.40
2941;DHT22;1480;51.456;6.670;2022-09-01T00:32:39;22.80;37.30
2941;DHT22;1480;51.456;6.670;2022-09-01T00:35:11;22.70;37.30
2941;DHT22;1480;51.456;6.670;2022-09-01T00:37:38;22.60;37.70
2941;DHT22;1480;51.456;6.670;2022-09-01T00:40:06;22.60;37.90
2941;DHT22;1480;51.456;6.670;2022-09-01T00:42:34;22.60;38.30
2941;DHT22;1480;51.456;6.670;2022-09-01T00:45:01;22.60;38.00
2941;DHT22;1480;51.456;6.670;2022-09-01T00:47:29;22.70;38.10
2941;DHT22;1480;51.456;6.670;2022-09-01T00:49:56;22.70;37.40
2941;DHT22;1480;51.456;6.670;2022-09-01T00:52:30;22.60;37.10
2941;DHT22;1480;51.456;6.670;2022-09-01T00:55:03;22.50;37.80
2941;DHT22;1480;51.456;6.670;2022-09-01T00:57:32;22.50;37.40
2941;DHT22;1480;51.456;6.670;2022-09-01T01:00:04;22.40;38.00
2941;DHT22;1480;51.456;6.670;2022-09-01T01:02:33;22.40;37.80
2941;DHT22;1480;51.456;6.670;2022-09-01T01:05:00;22.30;38.50
2941;DHT22;1480;51.456;6.670;2022-09-01T01:07:28;22.50;38.80
2941;DHT22;1480;51.456;6.670;2022-09-01T01:09:55;22.50;38.30
2941;DHT22;1480;51.456;6.670;2022-09-01T01:12:22;22.50;37.80
2941;DHT22;1480;51.456;6.670;2022-09-01T01:14:54;22.50;38.30
2941;DHT22;1480;51.456;6.670;2022-09-01T01:17:22;22.50;38.20
2941;DHT22;1480;51.456;6.670;2022-09-01T01:19:52;22.50;38.50
2941;DHT22;1480;51.456;6.670;2022-09-01T01:22:43;22.50;38.70
2941;DHT22;1480;51.456;6.670;2022-09-01T01:25:37;22.40;38.60
2941;DHT22;1480;51.456;6.670;2022-09-01T01:28:07;22.50;38.60
2941;DHT22;1480;51.456;6.670;2022-09-01T01:30:36;22.40;38.10
2941;DHT22;1480;51.456;6.670;2022-09-01T01:33:05;22.50;38.60
2941;DHT22;1480;51.456;6.670;2022-09-01T01:35:32;22.50;38.80
2941;DHT22;1480;51.456;6.670;2022-09-01T01:38:01;22.50;38.70
2941;DHT22;1480;51.456;6.670;2022-09-01T01:40:32;22.50;38.20
2941;DHT22;1480;51.456;6.670;2022-09-01T01:43:01;22.50;38.70
2941;DHT22;1480;51.456;6.670;2022-09-01T01:45:29;22.50;38.70
2941;DHT22;1480;51.456;6.670;2022-09-01T01:47:57;22.50;38.80
2941;DHT22;1480;51.456;6.670;2022-09-01T01:50:31;22.30;38.80
2941;DHT22;1480;51.456;6.670;2022-09-01T01:53:02;22.30;39.10
2941;DHT22;1480;51.456;6.670;2022-09-01T01:55:29;22.30;39.10
2941;DHT22;1480;51.456;6.670;2022-09-01T01:57:59;22.20;39.70
2941;DHT22;1480;51.456;6.670;2022-09-01T02:00:30;22.20;39.10
2941;DHT22;1480;51.456;6.670;2022-09-01T02:03:00;22.20;39.60
2941;DHT22;1480;51.456;6.670;2022-09-01T02:05:29;22.10;39.40
2941;DHT22;1480;51.456;6.670;2022-09-01T02:07:59;22.20;39.40
2941;DHT22;1480;51.456;6.670;2022-09-01T02:10:29;22.30;39.40
2941;DHT22;1480;51.456;6.670;2022-09-01T02:12:58;22.20;39.80
2941;DHT22;1480;51.456;6.670;2022-09-01T02:15:31;22.20;39.60
2941;DHT22;1480;51.456;6.670;2022-09-01T02:18:03;22.30;39.80
2941;DHT22;1480;51.456;6.670;2022-09-01T02:20:31;22.40;39.70
2941;DHT22;1480;51.456;6.670;2022-09-01T02:22:59;22.50;39.90
2941;DHT22;1480;51.456;6.670;2022-09-01T02:25:36;22.50;39.70
2941;DHT22;1480;51.456;6.670;2022-09-01T02:28:04;22.40;39.10
2941;DHT22;1480;51.456;6.670;2022-09-01T02:30:36;22.30;39.50
2941;DHT22;1480;51.456;6.670;2022-09-01T02:33:07;22.30;39.60
2941;DHT22;1480;51.456;6.670;2022-09-01T02:35:35;22.30;39.50
2941;DHT22;1480;51.456;6.670;2022-09-01T02:38:03;22.20;39.60
2941;DHT22;1480;51.456;6.670;2022-09-01T02:40:31;22.20;40.20
2941;DHT22;1480;51.456;6.670;2022-09-01T02:42:59;22.20;39.90
2941;DHT22;1480;51.456;6.670;2022-09-01T02:45:27;22.20;39.80
2941;DHT22;1480;51.456;6.670;2022-09-01T02:47:56;22.20;40.10
2941;DHT22;1480;51.456;6.670;2022-09-01T02:50:24;22.20;39.80
2941;DHT22;1480;51.456;6.670;2022-09-01T02:52:51;22.10;39.90
2941;DHT22;1480;51.456;6.670;2022-09-01T02:55:20;22.10;40.10
2941;DHT22;1480;51.456;6.670;2022-09-01T02:57:49;21.90;40.00
2941;DHT22;1480;51.456;6.670;2022-09-01T03:00:20;21.90;40.00
2941;DHT22;1480;51.456;6.670;2022-09-01T03:03:00;21.80;41.00
2941;DHT22;1480;51.456;6.670;2022-09-01T03:05:29;21.80;40.40
2941;DHT22;1480;51.456;6.670;2022-09-01T03:07:59;21.70;40.70
2941;DHT22;1480;51.456;6.670;2022-09-01T03:10:28;21.70;40.90
2941;DHT22;1480;51.456;6.670;2022-09-01T03:13:01;21.70;40.90
2941;DHT22;1480;51.456;6.670;2022-09-01T03:15:29;21.60;41.40
2941;DHT22;1480;51.456;6.670;2022-09-01T03:17:57;21.50;41.10
2941;DHT22;1480;51.456;6.670;2022-09-01T03:20:26;21.60;41.20
2941;DHT22;1480;51.456;6.670;2022-09-01T03:22:53;21.50;41.50
2941;DHT22;1480;51.456;6.670;2022-09-01T03:25:23;21.50;41.20
2941;DHT22;1480;51.456;6.670;2022-09-01T03:27:51;21.40;41.90
2941;DHT22;1480;51.456;6.670;2022-09-01T03:30:19;21.40;41.70
2941;DHT22;1480;51.456;6.670;2022-09-01T03:32:46;21.40;42.10
2941;DHT22;1480;51.456;6.670;2022-09-01T03:35:15;21.50;41.70
2941;DHT22;1480;51.456;6.670;2022-09-01T03:37:42;21.40;41.30
2941;DHT22;1480;51.456;6.670;2022-09-01T03:40:11;21.40;41.60
2941;DHT22;1480;51.456;6.670;2022-09-01T03:42:41;21.20;41.90
2941;DHT22;1480;51.456;6.670;2022-09-01T03:45:09;21.00;42.20
2941;DHT22;1480;51.456;6.670;2022-09-01T03:47:39;20.90;42.70
2941;DHT22;1480;51.456;6.670;2022-09-01T03:50:10;21.00;42.80
2941;DHT22;1480;51.456;6.670;2022-09-01T03:52:44;20.90;43.20
2941;DHT22;1480;51.456;6.670;2022-09-01T03:55:11;20.90;42.70
2941;DHT22;1480;51.456;6.670;2022-09-01T03:57:38;20.90;43.00
2941;DHT22;1480;51.456;6.670;2022-09-01T04:00:08;20.80;44.60
2941;DHT22;1480;51.456;6.670;2022-09-01T04:02:49;20.80;44.70
2941;DHT22;1480;51.456;6.670;2022-09-01T04:05:17;20.80;44.40
2941;DHT22;1480;51.456;6.670;2022-09-01T04:07:49;20.60;44.90
2941;DHT22;1480;51.456;6.670;2022-09-01T04:10:17;20.60;45.10
2941;DHT22;1480;51.456;6.670;2022-09-01T04:12:44;20.50;45.30
2941;DHT22;1480;51.456;6.670;2022-09-01T04:15:17;20.50;45.40
2941;DHT22;1480;51.456;6.670;2022-09-01T04:17:48;20.60;45.10
2941;DHT22;1480;51.456;6.670;2022-09-01T04:20:37;20.70;45.20
2941;DHT22;1480;51.456;6.670;2022-09-01T04:23:18;20.70;45.40
2941;DHT22;1480;51.456;6.670;2022-09-01T04:25:53;20.70;45.40
2941;DHT22;1480;51.456;6.670;2022-09-01T04:28:23;20.70;45.50
2941;DHT22;1480;51.456;6.670;2022-09-01T04:30:52;20.70;45.50
2941;DHT22;1480;51.456;6.670;2022-09-01T04:33:22;20.60;45.50
2941;DHT22;1480;51.456;6.670;2022-09-01T04:35:50;20.60;46.30
2941;DHT22;1480;51.456;6.670;2022-09-01T04:38:22;20.50;46.00
2941;DHT22;1480;51.456;6.670;2022-09-01T04:40:51;20.60;45.90
2941;DHT22;1480;51.456;6.670;2022-09-01T04:43:22;20.50;46.10
2941;DHT22;1480;51.456;6.670;2022-09-01T04:45:50;20.60;45.90
2941;DHT22;1480;51.456;6.670;2022-09-01T04:48:19;20.60;46.10
2941;DHT22;1480;51.456;6.670;2022-09-01T04:50:47;20.60;45.70
2941;DHT22;1480;51.456;6.670;2022-09-01T04:53:26;20.50;46.20
2941;DHT22;1480;51.456;6.670;2022-09-01T04:55:54;20.40;46.30
2941;DHT22;1480;51.456;6.670;2022-09-01T04:58:23;20.20;46.70
2941;DHT22;1480;51.456;6.670;2022-09-01T05:00:51;20.30;47.00
2941;DHT22;1480;51.456;6.670;2022-09-01T05:03:21;20.20;47.30
2941;DHT22;1480;51.456;6.670;2022-09-01T05:06:15;20.00;47.40
2941;DHT22;1480;51.456;6.670;2022-09-01T05:08:49;20.00;47.80
2941;DHT22;1480;51.456;6.670;2022-09-01T05:11:34;20.00;47.50
2941;DHT22;1480;51.456;6.670;2022-09-01T05:14:07;19.90;47.60
2941;DHT22;1480;51.456;6.670;2022-09-01T05:16:34;20.10;47.60
2941;DHT22;1480;51.456;6.670;2022-09-01T05:19:06;20.00;47.40
2941;DHT22;1480;51.456;6.670;2022-09-01T05:21:37;20.00;47.60
2941;DHT22;1480;51.456;6.670;2022-09-01T05:24:06;20.10;47.90
2941;DHT22;1480;51.456;6.670;2022-09-01T05:26:35;20.20;47.80
2941;DHT22;1480;51.456;6.670;2022-09-01T05:29:06;20.00;47.80
2941;DHT22;1480;51.456;6.670;2022-09-01T05:31:36;20.20;48.30
2941;DHT22;1480;51.456;6.670;2022-09-01T05:34:04;20.20;47.70
2941;DHT22;1480;51.456;6.670;2022-09-01T05:36:32;20.20;47.90
2941;DHT22;1480;51.456;6.670;2022-09-01T05:39:02;20.30;47.20
2941;DHT22;1480;51.456;6.670;2022-09-01T05:41:31;20.10;47.70
2941;DHT22;1480;51.456;6.670;2022-09-01T05:44:01;20.00;47.80
2941;DHT22;1480;51.456;6.670;2022-09-01T05:46:31;20.00;48.00
2941;DHT22;1480;51.456;6.670;2022-09-01T05:48:59;20.10;47.70
2941;DHT22;1480;51.456;6.670;2022-09-01T05:51:29;20.20;47.80
2941;DHT22;1480;51.456;6.670;2022-09-01T05:54:00;20.30;47.50
2941;DHT22;1480;51.456;6.670;2022-09-01T05:56:31;20.30;47.30
2941;DHT22;1480;51.456;6.670;2022-09-01T05:59:00;20.30;47.70
2941;DHT22;1480;51.456;6.670;2022-09-01T06:01:28;20.30;47.20
2941;DHT22;1480;51.456;6.670;2022-09-01T06:04:00;20.30;47.10
2941;DHT22;1480;51.456;6.670;2022-09-01T06:06:37;20.20;47.50
2941;DHT22;1480;51.456;6.670;2022-09-01T06:09:07;20.20;47.30
2941;DHT22;1480;51.456;6.670;2022-09-01T06:11:37;20.10;47.50
2941;DHT22;1480;51.456;6.670;2022-09-01T06:14:04;20.10;47.40
2941;DHT22;1480;51.456;6.670;2022-09-01T06:16:32;20.10;47.90
2941;DHT22;1480;51.456;6.670;2022-09-01T06:19:02;20.20;47.60
2941;DHT22;1480;51.456;6.670;2022-09-01T06:21:32;20.30;47.80
2941;DHT22;1480;51.456;6.670;2022-09-01T06:23:59;20.30;47.60
2941;DHT22;1480;51.456;6.670;2022-09-01T06:26:29;20.50;47.30
2941;DHT22;1480;51.456;6.670;2022-09-01T06:29:03;20.50;47.20
2941;DHT22;1480;51.456;6.670;2022-09-01T06:31:33;20.70;47.10
2941;DHT22;1480;51.456;6.670;2022-09-01T06:34:08;20.80;46.80
2941;DHT22;1480;51.456;6.670;2022-09-01T06:36:37;21.10;45.40
2941;DHT22;1480;51.456;6.670;2022-09-01T06:39:06;21.10;44.20
2941;DHT22;1480;51.456;6.670;2022-09-01T06:41:34;21.30;43.80
2941;DHT22;1480;51.456;6.670;2022-09-01T06:44:09;21.40;43.70
2941;DHT22;1480;51.456;6.670;2022-09-01T06:46:42;21.40;43.60
2941;DHT22;1480;51.456;6.670;2022-09-01T06:49:11;21.60;43.50
2941;DHT22;1480;51.456;6.670;2022-09-01T06:51:38;21.70;43.50
2941;DHT22;1480;51.456;6.670;2022-09-01T06:54:05;21.70;42.80
2941;DHT22;1480;51.456;6.670;2022-09-01T06:56:33;21.90;42.70
2941;DHT22;1480;51.456;6.670;2022-09-01T06:59:02;22.00;42.70
2941;DHT22;1480;51.456;6.670;2022-09-01T07:01:33;22.00;42.50
2941;DHT22;1480;51.456;6.670;2022-09-01T07:04:01;22.20;42.10
2941;DHT22;1480;51.456;6.670;2022-09-01T07:06:40;22.30;42.10
2941;DHT22;1480;51.456;6.670;2022-09-01T07:09:33;22.50;41.70
2941;DHT22;1480;51.456;6.670;2022-09-01T07:12:22;22.70;40.60
2941;DHT22;1480;51.456;6.670;2022-09-01T07:14:50;22.70;40.80
2941;DHT22;1480;51.456;6.670;2022-09-01T07:17:21;22.70;40.60
2941;DHT22;1480;51.456;6.670;2022-09-01T07:19:50;22.70;40.90
2941;DHT22;1480;51.456;6.670;2022-09-01T07:22:18;22.80;40.40
2941;DHT22;1480;51.456;6.670;2022-09-01T07:24:48;22.80;40.40
2941;DHT22;1480;51.456;6.670;2022-09-01T07:27:37;22.80;39.70
2941;DHT22;1480;51.456;6.670;2022-09-01T07:30:06;22.90;40.30
2941;DHT22;1480;51.456;6.670;2022-09-01T07:32:37;23.10;39.60
2941;DHT22;1480;51.456;6.670;2022-09-01T07:35:12;23.20;40.10
2941;DHT22;1480;51.456;6.670;2022-09-01T07:37:39;23.30;39.50
2941;DHT22;1480;51.456;6.670;2022-09-01T07:40:10;23.50;38.90
2941;DHT22;1480;51.456;6.670;2022-09-01T07:43:09;23.50;38.30
2941;DHT22;1480;51.456;6.670;2022-09-01T07:46:02;23.70;38.10
2941;DHT22;1480;51.456;6.670;2022-09-01T07:48:31;23.70;37.80
2941;DHT22;1480;51.456;6.670;2022-09-01T07:50:58;23.90;37.70
2941;DHT22;1480;51.456;6.670;2022-09-01T07:53:29;23.80;36.40
2941;DHT22;1480;51.456;6.670;2022-09-01T07:56:04;23.70;36.60
2941;DHT22;1480;51.456;6.670;2022-09-01T07:58:37;23.60;36.90
2941;DHT22;1480;51.456;6.670;2022-09-01T08:01:06;23.80;36.10
2941;DHT22;1480;51.456;6.670;2022-09-01T08:03:37;23.80;35.80
2941;DHT22;1480;51.456;6.670;2022-09-01T08:06:07;23.90;35.50
2941;DHT22;1480;51.456;6.670;2022-09-01T08:08:37;23.80;35.10
2941;DHT22;1480;51.456;6.670;2022-09-01T08:11:06;23.80;35.60
2941;DHT22;1480;51.456;6.670;2022-09-01T08:13:35;24.00;35.80
2941;DHT22;1480;51.456;6.670;2022-09-01T08:16:05;24.00;35.10
2941;DHT22;1480;51.456;6.670;2022-09-01T08:18:33;24.20;35.00
2941;DHT22;1480;51.456;6.670;2022-09-01T08:21:06;24.20;35.00
2941;DHT22;1480;51.456;6.670;2022-09-01T08:24:06;24.40;34.80
2941;DHT22;1480;51.456;6.670;2022-09-01T08:26:35;24.50;34.90
2941;DHT22;1480;51.456;6.670;2022-09-01T08:29:03;24.70;34.40
2941;DHT22;1480;51.456;6.670;2022-09-01T08:31:35;24.90;34.80
2941;DHT22;1480;51.456;6.670;2022-09-01T08:34:03;24.90;34.00
2941;DHT22;1480;51.456;6.670;2022-09-01T08:36:33;24.90;33.60
2941;DHT22;1480;51.456;6.670;2022-09-01T08:39:01;25.00;33.80
2941;DHT22;1480;51.456;6.670;2022-09-01T08:41:39;25.00;33.80
2941;DHT22;1480;51.456;6.670;2022-09-01T08:44:12;25.00;32.90
2941;DHT22;1480;51.456;6.670;2022-09-01T08:46:43;25.10;33.10
2941;DHT22;1480;51.456;6.670;2022-09-01T08:49:14;25.10;32.70
2941;DHT22;1480;51.456;6.670;2022-09-01T08:52:10;25.00;33.30
2941;DHT22;1480;51.456;6.670;2022-09-01T08:54:44;25.20;33.00
2941;DHT22;1480;51.456;6.670;2022-09-01T08:57:15;25.30;32.90
2941;DHT22;1480;51.456;6.670;2022-09-01T09:00:09;25.50;32.60
2941;DHT22;1480;51.456;6.670;2022-09-01T09:02:50;25.60;32.40
2941;DHT22;1480;51.456;6.670;2022-09-01T09:05:30;25.60;32.00
2941;DHT22;1480;51.456;6.670;2022-09-01T09:08:32;25.70;31.70
2941;DHT22;1480;51.456;6.670;2022-09-01T09:11:07;25.70;30.80
2941;DHT22;1480;51.456;6.670;2022-09-01T09:13:50;25.60;31.70
2941;DHT22;1480;51.456;6.670;2022-09-01T09:16:23;25.70;31.30
2941;DHT22;1480;51.456;6.670;2022-09-01T09:18:53;25.80;31.40
2941;DHT22;1480;51.456;6.670;2022-09-01T09:21:24;25.60;31.40
2941;DHT22;1480;51.456;6.670;2022-09-01T09:23:58;25.70;31.20
2941;DHT22;1480;51.456;6.670;2022-09-01T09:26:26;25.80;31.10
2941;DHT22;1480;51.456;6.670;2022-09-01T09:28:53;25.90;31.00
2941;DHT22;1480;51.456;6.670;2022-09-01T09:31:27;26.00;30.70
2941;DHT22;1480;51.456;6.670;2022-09-01T09:33:55;26.00;29.70
2941;DHT22;1480;51.456;6.670;2022-09-01T09:36:29;26.00;30.00
2941;DHT22;1480;51.456;6.670;2022-09-01T09:39:10;26.10;30.60
2941;DHT22;1480;51.456;6.670;2022-09-01T09:41:38;26.30;29.00
2941;DHT22;1480;51.456;6.670;2022-09-01T09:44:17;26.40;28.40
2941;DHT22;1480;51.456;6.670;2022-09-01T09:46:46;26.30;28.90
2941;DHT22;1480;51.456;6.670;2022-09-01T09:49:19;26.40;28.30
2941;DHT22;1480;51.456;6.670;2022-09-01T09:51:51;26.50;25.80
2941;DHT22;1480;51.456;6.670;2022-09-01T09:54:22;26.60;26.70
2941;DHT22;1480;51.456;6.670;2022-09-01T09:57:04;26.50;26.60
2941;DHT22;1480;51.456;6.670;2022-09-01T09:59:35;26.70;26.70
2941;DHT22;1480;51.456;6.670;2022-09-01T10:02:20;26.70;26.50
2941;DHT22;1480;51.456;6.670;2022-09-01T10:04:50;26.70;26.00
2941;DHT22;1480;51.456;6.670;2022-09-01T10:07:32;26.70;26.10
2941;DHT22;1480;51.456;6.670;2022-09-01T10:10:04;26.60;26.30
2941;DHT22;1480;51.456;6.670;2022-09-01T10:12:32;26.70;26.40
2941;DHT22;1480;51.456;6.670;2022-09-01T10:15:02;26.80;26.10
2941;DHT22;1480;51.456;6.670;2022-09-01T10:17:33;26.80;26.50
2941;DHT22;1480;51.456;6.670;2022-09-01T10:20:05;26.80;26.40
2941;DHT22;1480;51.456;6.670;2022-09-01T10:22:35;26.90;26.00
2941;DHT22;1480;51.456;6.670;2022-09-01T10:25:06;27.00;26.10
2941;DHT22;1480;51.456;6.670;2022-09-01T10:27:37;26.90;26.30
2941;DHT22;1480;51.456;6.670;2022-09-01T10:30:07;26.70;26.30
2941;DHT22;1480;51.456;6.670;2022-09-01T10:32:39;26.70;26.90
2941;DHT22;1480;51.456;6.670;2022-09-01T10:35:09;26.70;25.90
2941;DHT22;1480;51.456;6.670;2022-09-01T10:37:39;26.70;26.00
2941;DHT22;1480;51.456;6.670;2022-09-01T10:40:15;26.50;26.00
2941;DHT22;1480;51.456;6.670;2022-09-01T10:42:45;26.50;26.20
2941;DHT22;1480;51.456;6.670;2022-09-01T10:45:30;26.40;26.70
2941;DHT22;1480;51.456;6.670;2022-09-01T10:48:22;26.30;27.60
2941;DHT22;1480;51.456;6.670;2022-09-01T10:50:51;26.40;25.90
2941;DHT22;1480;51.456;6.670;2022-09-01T10:53:37;26.40;26.30
2941;DHT22;1480;51.456;6.670;2022-09-01T10:56:09;26.40;26.60
2941;DHT22;1480;51.456;6.670;2022-09-01T10:59:02;26.40;27.00
2941;DHT22;1480;51.456;6.670;2022-09-01T11:05:09;26.70;26.30
2941;DHT22;1480;51.456;6.670;2022-09-01T11:07:36;26.70;26.70
2941;DHT22;1480;51.456;6.670;2022-09-01T11:10:31;26.80;26.60
2941;DHT22;1480;51.456;6.670;2022-09-01T11:13:32;26.90;26.30
2941;DHT22;1480;51.456;6.670;2022-09-01T11:16:29;26.90;25.40
2941;DHT22;1480;51.456;6.670;2022-09-01T11:19:23;27.00;26.10
2941;DHT22;1480;51.456;6.670;2022-09-01T11:22:21;27.00;25.90
2941;DHT22;1480;51.456;6.670;2022-09-01T11:25:08;26.90;25.60
2941;DHT22;1480;51.456;6.670;2022-09-01T11:28:01;27.10;26.30
2941;DHT22;1480;51.456;6.670;2022-09-01T11:30:40;27.10;26.90
2941;DHT22;1480;51.456;6.670;2022-09-01T11:33:40;27.00;26.10
2941;DHT22;1480;51.456;6.670;2022-09-01T11:36:15;27.00;26.50
2941;DHT22;1480;51.456;6.670;2022-09-01T11:38:50;27.00;27.10
2941;DHT22;1480;51.456;6.670;2022-09-01T11:41:21;27.00;26.60
2941;DHT22;1480;51.456;6.670;2022-09-01T11:43:54;27.10;26.70
2941;DHT22;1480;51.456;6.670;2022-09-01T11:46:27;27.20;26.70
2941;DHT22;1480;51.456;6.670;2022-09-01T11:48:56;27.20;26.70
2941;DHT22;1480;51.456;6.670;2022-09-01T11:51:23;27.40;27.10
2941;DHT22;1480;51.456;6.670;2022-09-01T11:53:51;27.30;27.30
2941;DHT22;1480;51.456;6.670;2022-09-01T11:56:26;27.50;27.20
2941;DHT22;1480;51.456;6.670;2022-09-01T11:58:53;27.60;26.70
2941;DHT22;1480;51.456;6.670;2022-09-01T12:01:22;27.60;27.10
2941;DHT22;1480;51.456;6.670;2022-09-01T12:03:57;27.70;27.20
2941;DHT22;1480;51.456;6.670;2022-09-01T12:06:52;27.80;26.60
2941;DHT22;1480;51.456;6.670;2022-09-01T12:09:19;27.70;27.20
2941;DHT22;1480;51.456;6.670;2022-09-01T12:11:46;27.80;26.80
2941;DHT22;1480;51.456;6.670;2022-09-01T12:14:20;27.80;26.60
2941;DHT22;1480;51.456;6.670;2022-09-01T12:16:56;27.90;26.70
2941;DHT22;1480;51.456;6.670;2022-09-01T12:19:27;28.00;26.40
2941;DHT22;1480;51.456;6.670;2022-09-01T12:21:59;27.90;26.60
2941;DHT22;1480;51.456;6.670;2022-09-01T12:24:30;28.00;26.70
2941;DHT22;1480;51.456;6.670;2022-09-01T12:26:58;28.00;26.40
2941;DHT22;1480;51.456;6.670;2022-09-01T12:29:26;28.00;26.40
2941;DHT22;1480;51.456;6.670;2022-09-01T12:31:53;28.00;26.50
2941;DHT22;1480;51.456;6.670;2022-09-01T12:34:35;28.10;26.50
2941;DHT22;1480;51.456;6.670;2022-09-01T12:37:06;28.10;26.70
2941;DHT22;1480;51.456;6.670;2022-09-01T12:39:34;28.10;26.80
2941;DHT22;1480;51.456;6.670;2022-09-01T12:42:06;28.30;26.80
2941;DHT22;1480;51.456;6.670;2022-09-01T12:44:43;28.40;26.90
2941;DHT22;1480;51.456;6.670;2022-09-01T12:47:17;28.50;26.30
2941;DHT22;1480;51.456;6.670;2022-09-01T12:50:03;28.20;26.60
2941;DHT22;1480;51.456;6.670;2022-09-01T12:52:32;28.20;26.70
2941;DHT22;1480;51.456;6.670;2022-09-01T12:55:11;28.20;26.40
2941;DHT22;1480;51.456;6.670;2022-09-01T12:57:45;28.40;26.70
2941;DHT22;1480;51.456;6.670;2022-09-01T13:00:18;28.20;26.50
2941;DHT22;1480;51.456;6.670;2022-09-01T13:02:47;28.20;26.40
2941;DHT22;1480;51.456;6.670;2022-09-01T13:05:22;28.10;26.90
2941;DHT22;1480;51.456;6.670;2022-09-01T13:07:52;28.20;26.60
2941;DHT22;1480;51.456;6.670;2022-09-01T13:10:20;28.10;26.10
2941;DHT22;1480;51.456;6.670;2022-09-01T13:12:48;28.20;26.10
2941;DHT22;1480;51.456;6.670;2022-09-01T13:15:15;28.20;26.20
2941;DHT22;1480;51.456;6.670;2022-09-01T13:17:43;28.10;26.40
2941;DHT22;1480;51.456;6.670;2022-09-01T13:20:10;28.00;26.50
2941;DHT22;1480;51.456;6.670;2022-09-01T13:22:40;28.00;26.90
2941;DHT22;1480;51.456;6.670;2022-09-01T13:25:10;27.90;27.00
2941;DHT22;1480;51.456;6.670;2022-09-01T13:27:38;27.90;26.50
2941;DHT22;1480;51.456;6.670;2022-09-01T13:30:10;27.80;26.90
2941;DHT22;1480;51.456;6.670;2022-09-01T13:32:40;27.90;27.10
2941;DHT22;1480;51.456;6.670;2022-09-01T13:35:08;27.80;26.70
2941;DHT22;1480;51.456;6.670;2022-09-01T13:37:35;28.00;27.40
2941;DHT22;1480;51.456;6.670;2022-09-01T13:40:04;28.00;26.00
2941;DHT22;1480;51.456;6.670;2022-09-01T13:42:32;28.00;26.70
2941;DHT22;1480;51.456;6.670;2022-09-01T13:44:59;28.10;26.30
2941;DHT22;1480;51.456;6.670;2022-09-01T13:47:26;28.20;25.80
2941;DHT22;1480;51.456;6.670;2022-09-01T13:49:54;28.30;26.50
2941;DHT22;1480;51.456;6.670;2022-09-01T13:52:21;28.20;25.90
2941;DHT22;1480;51.456;6.670;2022-09-01T13:54:48;28.10;26.00
2941;DHT22;1480;51.456;6.670;2022-09-01T13:57:16;28.00;26.00
2941;DHT22;1480;51.456;6.670;2022-09-01T13:59:43;27.90;26.10
2941;DHT22;1480;51.456;6.670;2022-09-01T14:02:10;28.10;26.80
2941;DHT22;1480;51.456;6.670;2022-09-01T14:04:37;28.20;26.60
2941;DHT22;1480;51.456;6.670;2022-09-01T14:07:05;28.20;26.30
2941;DHT22;1480;51.456;6.670;2022-09-01T14:09:32;28.20;26.50
2941;DHT22;1480;51.456;6.670;2022-09-01T14:11:59;28.30;26.40
2941;DHT22;1480;51.456;6.670;2022-09-01T14:14:27;28.30;26.90
2941;DHT22;1480;51.456;6.670;2022-09-01T14:16:54;28.40;25.80
2941;DHT22;1480;51.456;6.670;2022-09-01T14:19:21;28.10;26.60
2941;DHT22;1480;51.456;6.670;2022-09-01T14:21:49;28.30;26.40
2941;DHT22;1480;51.456;6.670;2022-09-01T14:24:16;28.30;26.30
2941;DHT22;1480;51.456;6.670;2022-09-01T14:26:44;28.40;26.20
2941;DHT22;1480;51.456;6.670;2022-09-01T14:29:11;28.40;26.00
2941;DHT22;1480;51.456;6.670;2022-09-01T14:31:40;28.50;25.90
2941;DHT22;1480;51.456;6.670;2022-09-01T14:34:08;28.30;26.50
2941;DHT22;1480;51.456;6.670;2022-09-01T14:36:37;28.10;25.70
2941;DHT22;1480;51.456;6.670;2022-09-01T14:39:04;28.00;26.40
2941;DHT22;1480;51.456;6.670;2022-09-01T14:41:32;27.90;26.60
2941;DHT22;1480;51.456;6.670;2022-09-01T14:43:59;27.80;26.60
2941;DHT22;1480;51.456;6.670;2022-09-01T14:46:27;27.80;26.70
2941;DHT22;1480;51.456;6.670;2022-09-01T14:48:57;27.90;26.50
2941;DHT22;1480;51.456;6.670;2022-09-01T14:51:27;28.00;26.70
2941;DHT22;1480;51.456;6.670;2022-09-01T14:53:54;28.00;25.70
2941;DHT22;1480;51.456;6.670;2022-09-01T14:56:22;27.90;26.00
2941;DHT22;1480;51.456;6.670;2022-09-01T14:58:50;28.00;26.10
2941;DHT22;1480;51.456;6.670;2022-09-01T15:01:19;27.90;25.90
2941;DHT22;1480;51.456;6.670;2022-09-01T15:03:47;28.10;26.10
2941;DHT22;1480;51.456;6.670;2022-09-01T15:06:17;27.90;25.90
2941;DHT22;1480;51.456;6.670;2022-09-01T15:08:45;28.00;25.90
2941;DHT22;1480;51.456;6.670;2022-09-01T15:11:14;28.00;26.10
2941;DHT22;1480;51.456;6.670;2022-09-01T15:13:41;28.10;25.50
2941;DHT22;1480;51.456;6.670;2022-09-01T15:16:15;28.10;25.40
2941;DHT22;1480;51.456;6.670;2022-09-01T15:18:43;28.20;25.30
2941;DHT22;1480;51.456;6.670;2022-09-01T15:21:19;28.30;25.70
2941;DHT22;1480;51.456;6.670;2022-09-01T15:23:46;28.30;25.40
2941;DHT22;1480;51.456;6.670;2022-09-01T15:26:14;28.40;25.00
2941;DHT22;1480;51.456;6.670;2022-09-01T15:28:42;28.30;24.90
2941;DHT22;1480;51.456;6.670;2022-09-01T15:31:09;28.20;25.10
2941;DHT22;1480;51.456;6.670;2022-09-01T15:33:38;28.10;25.10
2941;DHT22;1480;51.456;6.670;2022-09-01T15:36:05;28.00;24.80
2941;DHT22;1480;51.456;6.670;2022-09-01T15:38:34;28.00;24.90
2941;DHT22;1480;51.456;6.670;2022-09-01T15:41:01;27.80;25.10
2941;DHT22;1480;51.456;6.670;2022-09-01T15:43:28;27.80;25.50
2941;DHT22;1480;51.456;6.670;2022-09-01T15:45:56;27.80;25.50
2941;DHT22;1480;51.456;6.670;2022-09-01T15:48:24;27.70;24.90
2941;DHT22;1480;51.456;6.670;2022-09-01T15:50:51;27.60;25.00
2941;DHT22;1480;51.456;6.670;2022-09-01T15:53:19;27.70;25.70
2941;DHT22;1480;51.456;6.670;2022-09-01T15:55:47;27.60;25.30
2941;DHT22;1480;51.456;6.670;2022-09-01T15:58:16;27.80;25.10
2941;DHT22;1480;51.456;6.670;2022-09-01T16:00:44;27.70;25.10
2941;DHT22;1480;51.456;6.670;2022-09-01T16:03:11;27.70;25.40
2941;DHT22;1480;51.456;6.670;2022-09-01T16:05:39;27.80;24.70
2941;DHT22;1480;51.456;6.670;2022-09-01T16:08:07;27.80;24.60
2941;DHT22;1480;51.456;6.670;2022-09-01T16:10:39;27.70;25.10
2941;DHT22;1480;51.456;6.670;2022-09-01T16:13:09;27.70;25.10
2941;DHT22;1480;51.456;6.670;2022-09-01T16:15:41;27.90;24.90
2941;DHT22;1480;51.456;6.670;2022-09-01T16:18:22;27.70;24.90
2941;DHT22;1480;51.456;6.670;2022-09-01T16:20:58;27.70;24.90
2941;DHT22;1480;51.456;6.670;2022-09-01T16:23:33;27.60;24.90
2941;DHT22;1480;51.456;6.670;2022-09-01T16:26:02;27.60;24.80
2941;DHT22;1480;51.456;6.670;2022-09-01T16:28:33;27.60;25.70
2941;DHT22;1480;51.456;6.670;2022-09-01T16:31:04;27.70;25.20
2941;DHT22;1480;51.456;6.670;2022-09-01T16:33:33;27.60;25.30